createdAt,value
2022-09-27T00:01:12.195Z,73.31
2022-09-27T00:03:40.050Z,73.26
2022-09-27T00:06:20.419Z,71.99
2022-09-27T00:08:47.387Z,73.30
2022-09-27T00:11:36.244Z,73.68
2022-09-27T00:14:05.431Z,73.61
2022-09-27T00:16:37.771Z,72.78
2022-09-27T00:19:22.575Z,72.83
2022-09-27T00:21:50.325Z,73.62
2022-09-27T00:24:22.779Z,73.96
2022-09-27T00:26:50.488Z,73.01
2022-09-27T00:29:19.520Z,72.06
2022-09-27T00:31:47.265Z,72.56
2022-09-27T00:34:23.312Z,73.53
2022-09-27T00:36:50.931Z,72.72
2022-09-27T00:39:18.947Z,71.91
2022-09-27T00:41:46.683Z,73.18
2022-09-27T00:44:25.977Z,73.32
2022-09-27T00:47:06.058Z,72.10
2022-09-27T00:49:54.844Z,72.96
2022-09-27T00:52:46.978Z,72.15
2022-09-27T00:55:28.223Z,71.99
2022-09-27T00:57:56.475Z,72.12
2022-09-27T01:00:23.526Z,71.62
2022-09-27T01:02:55.716Z,73.17
2022-09-27T01:05:28.210Z,72.62
2022-09-27T01:07:56.803Z,72.13
2022-09-27T01:10:26.802Z,71.96
2022-09-27T01:13:22.583Z,72.58
2022-09-27T01:16:23.518Z,71.48
2022-09-27T01:19:16.852Z,72.72
2022-09-27T01:22:05.541Z,70.67
2022-09-27T01:25:16.539Z,71.75
2022-09-27T01:28:47.853Z,73.31
2022-09-27T01:31:37.110Z,73.14
2022-09-27T01:34:27.565Z,72.67
2022-09-27T01:37:22.453Z,74.27
2022-09-27T01:40:32.928Z,73.39
2022-09-27T01:43:44.105Z,73.02
2022-09-27T01:46:28.557Z,74.08
2022-09-27T01:49:00.415Z,73.17
2022-09-27T01:52:02.797Z,73.35
2022-09-27T01:54:44.165Z,72.70
2022-09-27T01:57:16.963Z,73.08
2022-09-27T01:59:56.105Z,72.89
2022-09-27T02:02:27.597Z,73.04
2022-09-27T02:05:01.158Z,72.76
2022-09-27T02:08:05.402Z,72.40
2022-09-27T02:10:41.539Z,71.13
2022-09-27T02:13:22.546Z,70.94
2022-09-27T02:16:27.288Z,70.89
2022-09-27T02:19:22.127Z,71.45
2022-09-27T02:22:07.219Z,71.13
2022-09-27T02:25:05.583Z,71.32
2022-09-27T02:28:00.460Z,71.10
2022-09-27T02:30:27.644Z,69.71
2022-09-27T02:32:55.011Z,69.65
2022-09-27T02:35:34.214Z,69.18
2022-09-27T02:38:03.856Z,69.92
2022-09-27T02:40:36.361Z,69.11
2022-09-27T02:43:05.722Z,70.09
2022-09-27T02:45:54.090Z,69.17
2022-09-27T02:48:38.621Z,70.60
2022-09-27T02:52:06.934Z,70.64
2022-09-27T02:55:19.347Z,70.62
2022-09-27T02:58:38.025Z,70.62
2022-09-27T03:01:45.289Z,70.13
2022-09-27T03:04:34.488Z,69.72
2022-09-27T03:07:02.457Z,71.22
2022-09-27T03:09:48.194Z,69.96
2022-09-27T03:12:22.436Z,71.33
2022-09-27T03:14:49.974Z,71.55
2022-09-27T03:17:17.122Z,70.50
2022-09-27T03:19:44.206Z,70.91
2022-09-27T03:22:11.323Z,70.77
2022-09-27T03:24:38.303Z,70.83
2022-09-27T03:27:06.585Z,72.33
2022-09-27T03:29:33.697Z,72.59
2022-09-27T03:32:00.850Z,71.79
2022-09-27T03:34:28.247Z,70.83
2022-09-27T03:36:55.433Z,72.29
2022-09-27T03:39:22.592Z,73.03
2022-09-27T03:41:52.158Z,72.24
2022-09-27T03:44:19.245Z,72.75
2022-09-27T03:46:46.545Z,73.33
2022-09-27T03:49:13.585Z,73.56
2022-09-27T03:51:41.556Z,74.53
2022-09-27T03:54:09.482Z,73.96
2022-09-27T03:56:36.497Z,75.02
2022-09-27T03:59:03.712Z,75.06
2022-09-27T04:01:31.091Z,74.83
2022-09-27T04:03:58.239Z,76.01
2022-09-27T04:06:25.513Z,76.01
2022-09-27T04:08:52.896Z,75.93
2022-09-27T04:11:20.135Z,74.92
2022-09-27T04:13:49.171Z,76.63
2022-09-27T04:16:16.669Z,75.65
2022-09-27T04:18:44.009Z,76.03
2022-09-27T04:21:11.097Z,76.51
2022-09-27T04:23:38.313Z,76.89
2022-09-27T04:26:08.593Z,76.30
2022-09-27T04:28:35.653Z,76.01
2022-09-27T04:31:02.841Z,75.81
2022-09-27T04:33:29.932Z,77.30
2022-09-27T04:36:15.730Z,75.64
2022-09-27T04:38:42.711Z,76.15
2022-09-27T04:41:10.430Z,77.89
2022-09-27T04:43:37.411Z,77.32
2022-09-27T04:46:04.606Z,77.41
2022-09-27T04:48:32.041Z,78.32
2022-09-27T04:51:02.400Z,77.98
2022-09-27T04:53:30.136Z,77.27
2022-09-27T04:55:57.922Z,78.43
2022-09-27T04:58:26.021Z,78.04
2022-09-27T05:00:54.146Z,77.90
2022-09-27T05:03:22.005Z,77.57
2022-09-27T05:05:49.113Z,77.50
2022-09-27T05:08:16.253Z,78.53
2022-09-27T05:10:43.293Z,78.42
2022-09-27T05:13:10.353Z,78.99
2022-09-27T05:15:37.355Z,78.99
2022-09-27T05:18:04.522Z,78.47
2022-09-27T05:20:31.580Z,78.71
2022-09-27T05:22:58.655Z,79.65
2022-09-27T05:25:25.979Z,79.24
2022-09-27T05:27:53.440Z,79.92
2022-09-27T05:30:20.735Z,80.39
2022-09-27T05:32:50.590Z,81.21
2022-09-27T05:35:19.229Z,81.10
2022-09-27T05:38:00.857Z,80.23
2022-09-27T05:40:40.761Z,80.88
2022-09-27T05:43:08.641Z,79.87
2022-09-27T05:45:35.778Z,80.89
2022-09-27T05:48:06.148Z,81.53
2022-09-27T05:50:33.406Z,80.89
2022-09-27T05:53:00.395Z,80.58
2022-09-27T05:55:27.764Z,82.62
2022-09-27T05:58:01.099Z,82.05
2022-09-27T06:00:29.620Z,82.45
2022-09-27T06:03:06.238Z,82.65
2022-09-27T06:05:38.374Z,84.33
2022-09-27T06:08:13.194Z,84.05
2022-09-27T06:10:41.563Z,85.13
2022-09-27T06:13:15.297Z,84.99
2022-09-27T06:15:45.417Z,84.96
2022-09-27T06:18:18.068Z,84.52
2022-09-27T06:20:46.943Z,84.39
2022-09-27T06:23:19.040Z,84.84
2022-09-27T06:25:49.920Z,84.72
2022-09-27T06:28:18.495Z,86.10
2022-09-27T06:30:49.463Z,86.07
2022-09-27T06:33:20.457Z,86.21
2022-09-27T06:35:49.334Z,85.03
2022-09-27T06:38:18.585Z,84.89
2022-09-27T06:40:46.478Z,84.86
2022-09-27T06:43:20.550Z,84.94
2022-09-27T06:45:51.251Z,85.26
2022-09-27T06:48:18.310Z,84.15
2022-09-27T06:50:52.049Z,83.78
2022-09-27T06:53:19.135Z,84.10
2022-09-27T06:55:46.111Z,84.71
2022-09-27T06:58:31.782Z,84.06
2022-09-27T07:00:59.125Z,85.35
2022-09-27T07:03:35.554Z,85.48
2022-09-27T07:06:07.826Z,85.24
2022-09-27T07:08:35.839Z,86.55
2022-09-27T07:11:08.076Z,86.07
2022-09-27T07:13:40.205Z,86.33
2022-09-27T07:16:07.845Z,85.53
2022-09-27T07:18:35.006Z,86.00
2022-09-27T07:21:02.068Z,85.45
2022-09-27T07:23:30.379Z,85.48
2022-09-27T07:26:04.204Z,84.80
2022-09-27T07:28:32.134Z,86.33
2022-09-27T07:30:59.226Z,86.04
2022-09-27T07:33:26.514Z,86.69
2022-09-27T07:35:53.528Z,86.86
2022-09-27T07:38:20.723Z,86.38
2022-09-27T07:40:47.853Z,85.35
2022-09-27T07:43:15.203Z,85.87
2022-09-27T07:45:42.262Z,85.82
2022-09-27T07:48:14.274Z,85.13
2022-09-27T07:50:41.618Z,84.66
2022-09-27T07:53:13.866Z,85.38
2022-09-27T07:55:42.490Z,85.52
2022-09-27T07:58:12.038Z,85.13
2022-09-27T08:00:41.074Z,85.86
2022-09-27T08:03:17.703Z,85.61
2022-09-27T08:05:48.645Z,86.26
2022-09-27T08:08:17.366Z,85.27
2022-09-27T08:10:47.759Z,85.10
2022-09-27T08:13:20.099Z,84.97
2022-09-27T08:15:48.626Z,85.32
2022-09-27T08:18:16.545Z,86.77
2022-09-27T08:20:43.631Z,86.04
2022-09-27T08:23:10.766Z,86.52
2022-09-27T08:25:37.844Z,86.99
2022-09-27T08:28:05.243Z,86.15
2022-09-27T08:30:33.014Z,86.92
2022-09-27T08:33:03.222Z,86.87
2022-09-27T08:35:33.897Z,86.32
2022-09-27T08:38:05.825Z,86.60
2022-09-27T08:40:43.628Z,85.13
2022-09-27T08:43:52.527Z,85.33
2022-09-27T08:47:14.562Z,85.67
2022-09-27T08:50:40.060Z,86.30
2022-09-27T08:53:33.794Z,85.64
2022-09-27T08:56:03.837Z,86.33
2022-09-27T08:58:43.804Z,85.44
2022-09-27T09:01:17.708Z,85.99
2022-09-27T09:03:55.442Z,86.13
2022-09-27T09:06:34.697Z,85.55
2022-09-27T09:10:03.783Z,86.39
2022-09-27T09:12:57.666Z,86.97
2022-09-27T09:16:09.495Z,86.24
2022-09-27T09:19:14.234Z,85.69
2022-09-27T09:22:12.246Z,85.07
2022-09-27T09:25:09.827Z,85.49
2022-09-27T09:28:02.551Z,85.30
2022-09-27T09:31:06.620Z,84.79
2022-09-27T09:33:47.175Z,85.08
2022-09-27T09:36:46.899Z,85.35
2022-09-27T09:39:47.167Z,85.09
2022-09-27T09:43:02.671Z,85.20
2022-09-27T09:45:36.509Z,85.97
2022-09-27T09:48:42.464Z,84.88
2022-09-27T09:51:22.360Z,83.88
2022-09-27T09:54:15.816Z,84.04
2022-09-27T09:56:51.642Z,84.11
2022-09-27T09:59:35.681Z,84.89
2022-09-27T10:02:43.074Z,86.55
2022-09-27T10:05:24.735Z,86.07
2022-09-27T10:07:57.931Z,86.22
2022-09-27T10:10:25.449Z,84.67
2022-09-27T10:12:52.732Z,85.10
2022-09-27T10:15:30.228Z,83.80
2022-09-27T10:17:59.848Z,84.54
2022-09-27T10:20:45.111Z,83.79
2022-09-27T10:23:22.223Z,83.63
2022-09-27T10:25:55.895Z,82.79
2022-09-27T10:28:45.861Z,82.67
2022-09-27T10:31:18.324Z,82.69
2022-09-27T10:34:04.436Z,83.26
2022-09-27T10:36:36.307Z,83.47
2022-09-27T10:39:07.051Z,82.67
2022-09-27T10:41:44.247Z,84.15
2022-09-27T10:44:20.284Z,83.73
2022-09-27T10:46:51.905Z,83.37
2022-09-27T10:49:52.591Z,83.19
2022-09-27T10:52:24.178Z,82.62
2022-09-27T10:55:13.831Z,83.80
2022-09-27T10:57:45.079Z,83.44
2022-09-27T11:00:36.609Z,82.83
2022-09-27T11:03:16.544Z,82.08
2022-09-27T11:05:43.937Z,81.37
2022-09-27T11:08:27.227Z,80.33
2022-09-27T11:11:26.899Z,80.02
2022-09-27T11:14:17.841Z,77.16
2022-09-27T11:17:09.861Z,77.90
2022-09-27T11:20:34.003Z,77.41
2022-09-27T11:23:55.284Z,79.97
2022-09-27T11:26:46.993Z,79.65
2022-09-27T11:29:53.334Z,78.11
2022-09-27T11:33:07.920Z,78.49
2022-09-27T11:36:07.978Z,79.08
2022-09-27T11:39:02.381Z,78.28
2022-09-27T11:42:08.915Z,77.55
2022-09-27T11:48:43.581Z,79.82
2022-09-27T11:52:07.670Z,80.98
2022-09-27T11:55:34.805Z,84.84
2022-09-27T11:58:32.382Z,85.68
2022-09-27T12:02:01.303Z,85.42
2022-09-27T12:04:51.540Z,85.57
2022-09-27T12:07:53.713Z,86.96
2022-09-27T12:10:21.690Z,85.26
2022-09-27T12:12:55.840Z,85.70
2022-09-27T12:15:34.581Z,84.53
2022-09-27T12:18:33.425Z,83.34
2022-09-27T12:21:03.380Z,84.63
2022-09-27T12:23:41.646Z,85.57
2022-09-27T12:26:28.353Z,85.05
2022-09-27T12:29:20.961Z,85.04
2022-09-27T12:32:38.853Z,86.44
2022-09-27T12:35:30.990Z,86.90
2022-09-27T12:38:17.499Z,87.46
2022-09-27T12:40:55.478Z,88.47
2022-09-27T12:43:28.814Z,88.58
2022-09-27T12:46:10.616Z,87.96
2022-09-27T12:49:21.384Z,88.23
2022-09-27T12:51:58.659Z,87.84
2022-09-27T12:55:04.205Z,88.82
2022-09-27T12:58:24.483Z,89.02
2022-09-27T13:01:13.383Z,86.81
2022-09-27T13:04:16.638Z,86.54
2022-09-27T13:07:49.384Z,84.03
2022-09-27T13:10:41.576Z,82.78
2022-09-27T13:13:14.741Z,83.76
2022-09-27T13:15:45.709Z,84.77
2022-09-27T13:18:56.312Z,83.52
2022-09-27T13:21:55.316Z,84.50
2022-09-27T13:24:46.832Z,86.08
2022-09-27T13:27:29.082Z,84.47
2022-09-27T13:30:19.086Z,82.96
2022-09-27T13:33:48.788Z,83.88
2022-09-27T13:36:24.866Z,82.55
2022-09-27T13:39:19.846Z,81.91
2022-09-27T13:41:49.631Z,82.86
2022-09-27T13:45:20.158Z,82.84
2022-09-27T13:47:50.485Z,83.13
2022-09-27T13:50:48.224Z,82.38
2022-09-27T13:53:35.246Z,83.92
2022-09-27T13:56:03.102Z,82.46
2022-09-27T13:59:10.578Z,80.99
2022-09-27T14:02:25.850Z,81.99
2022-09-27T14:04:55.179Z,80.00
2022-09-27T14:07:34.917Z,81.92
2022-09-27T14:10:06.283Z,80.96
2022-09-27T14:12:38.673Z,80.62
2022-09-27T14:15:10.783Z,79.62
2022-09-27T14:17:45.966Z,82.10
2022-09-27T14:20:41.805Z,80.16
2022-09-27T14:23:25.962Z,79.09
2022-09-27T14:25:55.201Z,77.82
2022-09-27T14:28:40.432Z,78.94
2022-09-27T14:31:17.735Z,80.04
2022-09-27T14:33:46.154Z,78.58
2022-09-27T14:36:50.299Z,80.46
2022-09-27T14:39:36.318Z,80.91
2022-09-27T14:42:17.662Z,80.21
2022-09-27T14:44:45.521Z,81.97
2022-09-27T14:47:28.235Z,82.67
2022-09-27T14:50:12.917Z,83.30
2022-09-27T14:52:40.423Z,83.91
2022-09-27T14:55:22.043Z,82.95
2022-09-27T14:58:02.999Z,84.18
2022-09-27T15:00:36.322Z,84.09
2022-09-27T15:03:09.924Z,84.69
2022-09-27T15:05:43.185Z,85.64
2022-09-27T15:08:12.780Z,84.70
2022-09-27T15:10:40.552Z,85.25
2022-09-27T15:13:07.794Z,84.37
2022-09-27T15:15:39.789Z,83.68
2022-09-27T15:18:42.538Z,83.32
2022-09-27T15:21:37.362Z,83.45
2022-09-27T15:24:05.167Z,83.22
2022-09-27T15:26:45.934Z,83.86
2022-09-27T15:29:26.531Z,82.40
2022-09-27T15:32:06.792Z,84.03
2022-09-27T15:34:35.676Z,82.83
2022-09-27T15:37:05.097Z,83.66
2022-09-27T15:39:39.993Z,85.66
2022-09-27T15:42:17.557Z,85.36
2022-09-27T15:44:54.820Z,85.16
2022-09-27T15:47:42.944Z,84.31
2022-09-27T15:50:15.706Z,85.00
2022-09-27T15:52:47.447Z,84.71
2022-09-27T15:55:15.875Z,84.83
2022-09-27T15:57:45.913Z,85.53
2022-09-27T16:00:16.889Z,84.43
2022-09-27T16:02:47.966Z,83.56
2022-09-27T16:05:15.066Z,84.24
2022-09-27T16:07:42.508Z,83.69
2022-09-27T16:10:25.955Z,83.46
2022-09-27T16:12:52.936Z,83.30
2022-09-27T16:15:20.069Z,83.84
2022-09-27T16:17:47.082Z,83.84
2022-09-27T16:20:25.022Z,83.22
2022-09-27T16:22:53.828Z,82.19
2022-09-27T16:25:23.375Z,81.29
2022-09-27T16:27:50.995Z,81.33
2022-09-27T16:30:18.750Z,80.47
2022-09-27T16:32:48.529Z,79.82
2022-09-27T16:35:19.871Z,79.16
2022-09-27T16:37:47.227Z,79.33
2022-09-27T16:40:17.874Z,80.59
2022-09-27T16:42:48.727Z,79.64
2022-09-27T16:45:19.326Z,80.94
2022-09-27T16:47:47.440Z,80.49
2022-09-27T16:50:34.239Z,80.38
2022-09-27T16:53:05.158Z,81.36
2022-09-27T16:55:32.327Z,82.52
2022-09-27T16:57:59.990Z,83.19
2022-09-27T17:00:27.658Z,84.27
2022-09-27T17:02:54.877Z,83.99
2022-09-27T17:05:23.051Z,82.60
2022-09-27T17:07:52.863Z,82.41
2022-09-27T17:10:23.839Z,82.81
2022-09-27T17:12:51.115Z,83.71
2022-09-27T17:15:18.525Z,84.13
2022-09-27T17:17:50.117Z,83.83
2022-09-27T17:20:17.577Z,84.39
2022-09-27T17:22:44.615Z,83.69
2022-09-27T17:25:11.617Z,83.81
2022-09-27T17:27:38.662Z,82.58
2022-09-27T17:30:06.950Z,82.73
2022-09-27T17:32:34.806Z,82.54
2022-09-27T17:35:02.576Z,82.36
2022-09-27T17:37:29.873Z,82.77
2022-09-27T17:39:57.570Z,82.81
2022-09-27T17:42:25.518Z,82.48
2022-09-27T17:44:52.749Z,82.20
2022-09-27T17:47:38.626Z,82.20
2022-09-27T17:50:24.636Z,82.53
2022-09-27T17:52:57.311Z,83.28
2022-09-27T17:55:24.921Z,83.55
2022-09-27T17:57:52.344Z,83.63
2022-09-27T18:00:20.704Z,84.13
2022-09-27T18:02:48.529Z,83.59
2022-09-27T18:05:15.765Z,85.14
2022-09-27T18:07:42.829Z,85.17
2022-09-27T18:10:09.942Z,85.29
2022-09-27T18:12:39.421Z,85.41
2022-09-27T18:15:08.031Z,85.43
2022-09-27T18:17:36.345Z,86.04
2022-09-27T18:20:05.316Z,85.84
2022-09-27T18:22:32.297Z,85.94
2022-09-27T18:25:00.907Z,85.88
2022-09-27T18:27:28.840Z,85.74
2022-09-27T18:29:55.846Z,85.37
2022-09-27T18:32:22.860Z,85.08
2022-09-27T18:34:49.849Z,84.24
2022-09-27T18:37:16.810Z,85.04
2022-09-27T18:39:43.822Z,84.52
2022-09-27T18:42:10.814Z,83.96
2022-09-27T18:44:37.856Z,83.57
2022-09-27T18:47:04.848Z,83.25
2022-09-27T18:49:34.237Z,83.31
2022-09-27T18:52:02.529Z,83.88
2022-09-27T18:54:29.556Z,83.78
2022-09-27T18:56:56.529Z,83.97
2022-09-27T18:59:24.031Z,83.96
2022-09-27T19:01:51.546Z,84.06
2022-09-27T19:04:25.729Z,84.53
2022-09-27T19:06:56.782Z,84.47
2022-09-27T19:09:26.699Z,84.16
2022-09-27T19:11:53.817Z,83.47
2022-09-27T19:14:22.655Z,83.39
2022-09-27T19:16:50.771Z,83.47
2022-09-27T19:19:19.502Z,83.42
2022-09-27T19:21:47.735Z,83.55
2022-09-27T19:24:16.240Z,83.02
2022-09-27T19:26:43.555Z,83.20
2022-09-27T19:29:11.513Z,83.63
2022-09-27T19:31:38.696Z,82.81
2022-09-27T19:34:05.725Z,83.00
2022-09-27T19:36:32.794Z,83.84
2022-09-27T19:39:00.307Z,83.75
2022-09-27T19:41:27.365Z,83.77
2022-09-27T19:43:56.534Z,83.59
2022-09-27T19:46:25.551Z,83.41
2022-09-27T19:48:53.727Z,83.64
2022-09-27T19:51:25.089Z,84.29
2022-09-27T19:53:53.594Z,84.46
2022-09-27T19:56:22.067Z,84.29
2022-09-27T19:58:49.474Z,84.34
2022-09-27T20:01:25.907Z,84.69
2022-09-27T20:03:55.792Z,84.57
2022-09-27T20:06:23.096Z,84.28
2022-09-27T20:08:50.282Z,84.25
2022-09-27T20:11:23.280Z,84.79
2022-09-27T20:13:53.047Z,84.33
2022-09-27T20:16:24.027Z,84.59
2022-09-27T20:18:55.366Z,84.25
2022-09-27T20:21:34.018Z,84.56
2022-09-27T20:24:04.529Z,84.56
2022-09-27T20:26:34.510Z,84.47
2022-09-27T20:29:03.368Z,84.14
2022-09-27T20:31:36.786Z,84.49
2022-09-27T20:34:06.844Z,84.27
2022-09-27T20:36:41.372Z,83.99
2022-09-27T20:39:15.342Z,84.40
2022-09-27T20:41:46.310Z,83.71
2022-09-27T20:44:19.755Z,84.12
2022-09-27T20:46:48.165Z,83.79
2022-09-27T20:49:18.582Z,83.69
2022-09-27T20:51:51.308Z,83.65
2022-09-27T20:54:18.586Z,83.76
2022-09-27T20:56:48.590Z,83.71
2022-09-27T20:59:22.619Z,84.44
2022-09-27T21:01:52.263Z,83.98
2022-09-27T21:04:21.319Z,84.37
2022-09-27T21:06:48.350Z,84.61
2022-09-27T21:09:19.409Z,84.11
2022-09-27T21:11:48.995Z,83.25
2022-09-27T21:14:16.201Z,82.63
2022-09-27T21:16:43.334Z,82.70
2022-09-27T21:19:10.616Z,83.18
2022-09-27T21:21:37.602Z,82.85
2022-09-27T21:24:05.169Z,82.72
2022-09-27T21:26:33.654Z,83.23
2022-09-27T21:29:06.413Z,82.24
2022-09-27T21:31:34.160Z,82.80
2022-09-27T21:34:04.005Z,82.94
2022-09-27T21:36:35.558Z,82.79
2022-09-27T21:39:04.269Z,81.86
2022-09-27T21:41:31.367Z,81.60
2022-09-27T21:43:58.456Z,81.91
2022-09-27T21:46:28.646Z,81.46
2022-09-27T21:49:00.121Z,82.51
2022-09-27T21:51:40.446Z,82.02
2022-09-27T21:54:15.099Z,81.77
2022-09-27T21:56:44.087Z,81.96
2022-09-27T21:59:15.542Z,82.14
2022-09-27T22:01:45.634Z,81.15
2022-09-27T22:04:13.212Z,81.49
2022-09-27T22:06:40.583Z,81.22
2022-09-27T22:09:16.613Z,81.37
2022-09-27T22:11:44.681Z,80.63
2022-09-27T22:14:13.006Z,80.40
2022-09-27T22:16:40.042Z,80.91
2022-09-27T22:19:07.881Z,81.26
2022-09-27T22:21:38.676Z,81.02
2022-09-27T22:24:18.261Z,81.17
2022-09-27T22:26:52.803Z,81.04
2022-09-27T22:29:20.411Z,81.97
2022-09-27T22:31:47.975Z,81.95
2022-09-27T22:34:28.633Z,81.47
2022-09-27T22:37:00.771Z,81.18
2022-09-27T22:39:28.857Z,81.48
2022-09-27T22:41:56.139Z,81.36
2022-09-27T22:44:23.441Z,81.50
2022-09-27T22:46:50.390Z,82.10
2022-09-27T22:49:17.479Z,81.83
2022-09-27T22:51:44.579Z,82.25
2022-09-27T22:54:11.522Z,81.99
2022-09-27T22:56:38.514Z,81.95
2022-09-27T22:59:05.538Z,82.48
2022-09-27T23:01:32.621Z,82.93
2022-09-27T23:03:59.760Z,82.23
2022-09-27T23:06:26.966Z,82.11
2022-09-27T23:08:54.864Z,82.49
2022-09-27T23:11:23.105Z,82.93
2022-09-27T23:13:51.428Z,82.31
2022-09-27T23:16:25.902Z,82.19
2022-09-27T23:18:57.054Z,82.26
2022-09-27T23:21:26.172Z,83.32
2022-09-27T23:23:56.610Z,83.37
2022-09-27T23:26:26.822Z,82.92
2022-09-27T23:28:56.767Z,83.92
2022-09-27T23:31:25.417Z,83.53
2022-09-27T23:33:54.503Z,83.27
2022-09-27T23:36:26.686Z,82.58
2022-09-27T23:38:58.078Z,81.92
2022-09-27T23:41:25.053Z,82.68
2022-09-27T23:43:53.294Z,82.87
2022-09-27T23:46:21.121Z,82.68
2022-09-27T23:48:48.676Z,82.90
2022-09-27T23:51:15.718Z,83.37
2022-09-27T23:53:42.890Z,82.72
2022-09-27T23:56:15.622Z,83.30
2022-09-27T23:58:45.581Z,82.67
